Time;durP1;ratioP1;P1;durP2;ratioP2;P2;SDS_P1;SDS_P2;PMS_P1;PMS_P2;Temp;Humidity;BMP_temperature;BMP_pressure;BME280_temperature;BME280_humidity;BME280_pressure;Samples;Min_cycle;Max_cycle;Signal;HPM_P1;HPM_P2
2024/01/16 00:02:25;;;;;;;8.10;3.60;;;;;;;1.44;59.17;96576.22;5017161;28;20025;-86
2024/01/16 00:04:50;;;;;;;7.13;3.67;;;;;;;1.42;60.31;96571.31;4987761;28;20533;-84
2024/01/16 00:07:16;;;;;;;5.63;3.30;;;;;;;1.28;59.80;96573.09;5007358;28;20037;-84
2024/01/16 00:09:41;;;;;;;7.47;3.88;;;;;;;1.22;60.41;96573.91;5004459;28;20041;-79
2024/01/16 00:12:07;;;;;;;6.55;3.63;;;;;;;1.20;59.71;96570.75;5004232;28;20096;-80
2024/01/16 00:14:36;;;;;;;6.60;3.42;;;;;;;1.16;60.26;96577.25;5015570;28;20029;-80
2024/01/16 00:17:02;;;;;;;7.45;3.78;;;;;;;1.08;60.92;96582.56;5038229;28;20095;-80
2024/01/16 00:19:27;;;;;;;8.65;3.50;;;;;;;0.97;59.57;96568.59;4995701;28;20806;-80
2024/01/16 00:21:53;;;;;;;6.65;3.50;;;;;;;0.98;59.96;96579.63;5026984;28;20102;-79
2024/01/16 00:24:18;;;;;;;6.32;3.25;;;;;;;0.91;59.44;96579.66;4999208;28;20380;-80
2024/01/16 00:26:44;;;;;;;7.22;3.65;;;;;;;0.85;59.90;96586.31;5013187;28;20489;-80
2024/01/16 00:29:11;;;;;;;7.45;3.67;;;;;;;0.86;60.02;96587.13;5014214;28;20497;-80
2024/01/16 00:31:37;;;;;;;6.57;3.83;;;;;;;0.79;60.40;96602.50;5009129;28;20052;-79
2024/01/16 00:34:03;;;;;;;7.20;3.47;;;;;;;0.81;61.04;96597.97;5010154;28;20337;-79
2024/01/16 00:36:28;;;;;;;7.35;3.42;;;;;;;0.75;60.51;96601.31;4996401;28;20774;-79
2024/01/16 00:38:54;;;;;;;5.90;3.13;;;;;;;0.71;60.22;96597.56;4995191;28;20118;-80
2024/01/16 00:41:19;;;;;;;6.35;3.13;;;;;;;0.64;61.00;96597.56;5015188;28;20107;-80
2024/01/16 00:43:45;;;;;;;6.10;3.70;;;;;;;0.63;61.10;96602.88;4991182;28;20036;-79
2024/01/16 00:46:10;;;;;;;9.90;3.92;;;;;;;0.59;61.16;96596.56;5013734;28;20029;-79
2024/01/16 00:48:36;;;;;;;6.18;3.70;;;;;;;0.59;60.91;96599.13;4996897;28;20493;-80
2024/01/16 00:51:02;;;;;;;6.68;3.50;;;;;;;0.58;60.88;96600.09;5003541;28;20080;-81
2024/01/16 00:53:27;;;;;;;5.45;3.65;;;;;;;0.44;60.29;96579.59;4996827;28;20050;-80
2024/01/16 00:55:54;;;;;;;5.75;3.65;;;;;;;0.51;60.89;96608.56;5019855;28;20052;-80
2024/01/16 00:58:23;;;;;;;9.00;4.10;;;;;;;0.54;62.03;96604.81;5001121;28;20484;-80
2024/01/16 01:00:48;;;;;;;7.85;3.92;;;;;;;0.57;61.33;96599.31;5004434;28;20484;-80
2024/01/16 01:03:13;;;;;;;6.47;4.03;;;;;;;0.74;61.73;96605.66;5015500;28;20040;-80
2024/01/16 01:05:39;;;;;;;6.18;4.05;;;;;;;0.77;61.80;96590.84;5003269;28;20076;-80
2024/01/16 01:08:04;;;;;;;7.28;4.05;;;;;;;0.72;62.00;96592.25;5017228;28;20099;-80
2024/01/16 01:10:30;;;;;;;9.88;3.85;;;;;;;0.80;62.03;96591.25;5016732;28;20025;-79
2024/01/16 01:12:55;;;;;;;6.53;4.63;;;;;;;0.90;61.40;96599.34;5003284;28;20109;-80
2024/01/16 01:15:21;;;;;;;8.23;4.22;;;;;;;0.84;61.21;96597.59;4998100;28;20038;-80
2024/01/16 01:17:49;;;;;;;8.75;3.75;;;;;;;1.00;61.78;96603.31;5010437;28;20037;-79
2024/01/16 01:20:14;;;;;;;10.02;5.00;;;;;;;0.97;60.97;96608.81;5017816;28;20239;-86
2024/01/16 01:22:40;;;;;;;6.32;3.92;;;;;;;0.99;60.85;96607.63;5003812;28;20048;-86
2024/01/16 01:25:06;;;;;;;7.05;3.70;;;;;;;1.07;61.76;96612.56;5026264;28;20068;-85
2024/01/16 01:27:31;;;;;;;8.13;4.07;;;;;;;0.99;60.97;96619.66;5001632;28;20509;-85
2024/01/16 01:29:58;;;;;;;7.75;4.10;;;;;;;0.97;61.24;96616.50;5000607;28;20060;-80
2024/01/16 01:32:23;;;;;;;6.55;4.28;;;;;;;1.03;61.82;96626.75;5014874;28;20045;-80
2024/01/16 01:34:48;;;;;;;7.82;3.97;;;;;;;1.07;61.83;96622.03;4999594;28;20026;-79
2024/01/16 01:37:14;;;;;;;10.80;4.75;;;;;;;1.06;61.72;96623.00;5003431;28;20485;-79
2024/01/16 01:39:39;;;;;;;10.07;4.50;;;;;;;0.99;62.22;96619.66;5007340;28;20069;-80
2024/01/16 01:42:05;;;;;;;7.25;4.13;;;;;;;1.14;61.50;96625.38;5012347;28;20490;-80
2024/01/16 01:44:30;;;;;;;8.38;4.68;;;;;;;1.14;61.80;96625.38;4991975;28;20442;-80
2024/01/16 01:46:56;;;;;;;7.97;4.50;;;;;;;1.07;61.63;96622.03;5001097;28;20041;-81
2024/01/16 01:49:22;;;;;;;10.07;4.68;;;;;;;1.19;62.40;96630.69;5010081;28;20045;-80
2024/01/16 01:51:48;;;;;;;7.00;4.32;;;;;;;1.15;62.37;96626.97;5000552;28;20045;-80
2024/01/16 01:54:15;;;;;;;7.65;4.00;;;;;;;1.10;61.50;96629.34;4984671;28;20041;-80
2024/01/16 01:56:43;;;;;;;7.95;4.60;;;;;;;1.22;61.16;96624.41;4989631;28;20445;-79
2024/01/16 01:59:08;;;;;;;7.22;4.20;;;;;;;1.12;61.67;96629.91;4968919;28;20030;-80
2024/01/16 02:01:34;;;;;;;8.65;4.00;;;;;;;1.06;61.50;96625.56;4981722;28;20041;-79
2024/01/16 02:04:00;;;;;;;7.47;3.83;;;;;;;1.00;61.77;96623.81;4965440;28;20037;-80
2024/01/16 02:06:25;;;;;;;8.63;3.80;;;;;;;1.07;61.41;96645.09;4997318;28;20127;-80
2024/01/16 02:08:51;;;;;;;7.85;4.03;;;;;;;1.03;61.65;96631.09;4997112;28;20518;-80
2024/01/16 02:11:16;;;;;;;10.25;4.53;;;;;;;0.98;61.61;96621.44;4995772;28;20033;-80
2024/01/16 02:13:42;;;;;;;6.68;3.53;;;;;;;0.97;62.08;96621.63;5010032;28;20041;-80
2024/01/16 02:16:18;;;;;;;8.60;4.68;;;;;;;1.05;61.99;96624.78;5012656;28;20034;-80
2024/01/16 02:18:44;;;;;;;8.63;4.43;;;;;;;0.93;61.12;96613.56;4970006;28;20628;-80
2024/01/16 02:21:09;;;;;;;7.68;4.50;;;;;;;0.99;61.57;96623.00;4998352;28;20042;-79
2024/01/16 02:23:35;;;;;;;9.73;4.70;;;;;;;0.99;61.41;96632.47;4990413;28;20068;-80
2024/01/16 02:26:01;;;;;;;8.50;3.83;;;;;;;0.97;61.64;96624.19;4990437;28;20141;-80
2024/01/16 02:28:26;;;;;;;8.20;4.38;;;;;;;0.89;61.25;96623.41;4986646;28;20038;-80
2024/01/16 02:30:51;;;;;;;9.23;4.72;;;;;;;0.98;61.43;96636.00;4984845;28;20123;-80
2024/01/16 02:33:17;;;;;;;9.25;3.78;;;;;;;0.91;62.07;96626.56;4986862;28;20041;-79
2024/01/16 02:35:42;;;;;;;10.25;4.30;;;;;;;0.96;61.64;96635.41;4996959;28;20034;-80
2024/01/16 02:38:08;;;;;;;7.68;4.60;;;;;;;0.86;61.97;96639.16;4988808;28;20522;-80
2024/01/16 02:40:33;;;;;;;7.47;3.95;;;;;;;0.85;61.87;96635.03;4978336;28;20025;-85
2024/01/16 02:42:58;;;;;;;9.25;4.40;;;;;;;0.95;61.38;96636.44;4973633;28;20037;-84
2024/01/16 02:45:25;;;;;;;9.90;4.30;;;;;;;1.00;61.53;96621.25;4988070;28;20453;-83
2024/01/16 02:47:50;;;;;;;8.88;4.60;;;;;;;1.04;61.27;96624.97;4992763;28;20041;-83
2024/01/16 02:50:16;;;;;;;7.00;4.20;;;;;;;1.01;61.39;96630.50;4995786;28;20069;-82
2024/01/16 02:52:41;;;;;;;9.23;4.90;;;;;;;1.04;62.21;96630.09;4985990;28;20823;-82
2024/01/16 02:55:07;;;;;;;10.77;4.82;;;;;;;1.10;61.88;96635.25;5000364;28;20029;-85
2024/01/16 02:57:33;;;;;;;8.50;4.40;;;;;;;1.15;60.89;96642.34;4996169;28;20336;-82
2024/01/16 02:59:58;;;;;;;8.65;4.75;;;;;;;1.20;61.15;96637.41;4991408;28;20339;-86
2024/01/16 03:02:24;;;;;;;9.05;4.40;;;;;;;1.05;61.01;96622.22;4989267;28;20038;-84
2024/01/16 03:04:49;;;;;;;9.68;5.05;;;;;;;1.05;61.13;96639.38;4993989;28;20072;-85
2024/01/16 03:07:15;;;;;;;8.40;5.15;;;;;;;1.02;61.54;96632.09;4988380;28;20115;-85
2024/01/16 03:09:41;;;;;;;11.20;5.20;;;;;;;1.05;61.58;96635.03;4973899;28;20112;-84
2024/01/16 03:12:06;;;;;;;9.57;4.38;;;;;;;1.11;61.74;96641.16;4982319;28;20614;-85
2024/01/16 03:14:34;;;;;;;8.45;4.53;;;;;;;1.11;62.25;96643.72;4986919;28;20050;-83
2024/01/16 03:17:02;;;;;;;10.30;4.82;;;;;;;1.16;62.11;96635.44;4977376;28;20052;-85
2024/01/16 03:19:28;;;;;;;7.90;4.22;;;;;;;1.14;61.70;96635.63;4973055;28;20084;-84
2024/01/16 03:21:53;;;;;;;8.82;4.88;;;;;;;1.11;61.73;96628.34;4997551;28;20049;-85
2024/01/16 03:24:19;;;;;;;8.68;4.15;;;;;;;1.04;60.91;96627.53;4974285;28;20464;-82
2024/01/16 03:26:45;;;;;;;10.02;4.80;;;;;;;0.97;61.59;96619.06;4966659;28;20034;-85
2024/01/16 03:29:11;;;;;;;8.68;4.35;;;;;;;0.99;61.61;96635.03;4989302;28;20066;-85
2024/01/16 03:31:36;;;;;;;10.10;4.75;;;;;;;0.96;61.07;96640.53;4985060;28;20041;-86
2024/01/16 03:34:01;;;;;;;9.45;4.35;;;;;;;1.03;61.09;96631.09;5007994;28;20037;-85
2024/01/16 03:36:27;;;;;;;9.48;4.80;;;;;;;0.93;61.64;96618.69;4998877;28;20064;-85
2024/01/16 03:38:52;;;;;;;10.25;5.15;;;;;;;0.99;62.16;96624.78;4988443;28;20041;-84
2024/01/16 03:41:18;;;;;;;9.18;4.72;;;;;;;0.96;61.81;96628.53;5005243;28;20061;-80
2024/01/16 03:43:44;;;;;;;7.60;4.00;;;;;;;0.95;61.92;96637.19;5001631;28;20066;-80
2024/01/16 03:46:12;;;;;;;7.25;4.57;;;;;;;0.96;62.10;96633.66;5021720;28;20509;-79
2024/01/16 03:48:38;;;;;;;10.07;4.57;;;;;;;0.93;61.60;96639.97;5023355;28;20089;-79
2024/01/16 03:51:03;;;;;;;8.45;3.97;;;;;;;0.92;62.30;96635.03;4985485;28;20029;-79
2024/01/16 03:53:29;;;;;;;11.68;4.60;;;;;;;0.95;62.59;96636.44;5008288;28;20034;-80
2024/01/16 03:55:58;;;;;;;8.20;5.10;;;;;;;0.94;61.82;96635.63;5002724;28;20061;-80
2024/01/16 03:58:23;;;;;;;9.25;4.55;;;;;;;0.99;62.00;96627.34;5016828;28;20029;-80
2024/01/16 04:00:50;;;;;;;8.30;4.63;;;;;;;1.08;61.31;96626.16;5001320;28;20032;-80
2024/01/16 04:03:16;;;;;;;8.77;4.45;;;;;;;1.01;61.51;96626.19;4992769;28;20061;-80
2024/01/16 04:05:42;;;;;;;10.27;4.50;;;;;;;0.95;62.21;96626.16;5007197;28;20038;-80
2024/01/16 04:08:07;;;;;;;9.45;4.30;;;;;;;0.87;61.84;96635.59;4999092;28;20441;-79
2024/01/16 04:10:33;;;;;;;9.55;4.03;;;;;;;0.86;62.37;96613.53;5013362;28;20461;-79
2024/01/16 04:13:01;;;;;;;11.32;4.47;;;;;;;0.85;62.53;96624.00;5010079;28;20435;-80
2024/01/16 04:15:27;;;;;;;9.95;4.50;;;;;;;0.86;61.82;96626.34;4979778;28;20569;-79
2024/01/16 04:17:52;;;;;;;7.78;4.32;;;;;;;0.73;61.39;96634.03;5018848;28;20033;-80
2024/01/16 04:20:17;;;;;;;9.50;4.47;;;;;;;0.72;61.66;96635.81;4991078;28;20022;-80
2024/01/16 04:22:43;;;;;;;8.20;4.32;;;;;;;0.81;61.59;96636.41;5015156;28;20036;-79
2024/01/16 04:25:09;;;;;;;10.40;5.18;;;;;;;0.81;61.61;96620.25;5023640;28;20037;-79
2024/01/16 04:27:34;;;;;;;9.73;4.70;;;;;;;0.82;62.44;96616.69;5020296;28;20034;-80
2024/01/16 04:30:00;;;;;;;10.57;4.60;;;;;;;0.82;62.08;96620.03;5010017;28;20033;-79
2024/01/16 04:32:25;;;;;;;10.10;3.97;;;;;;;0.67;62.60;96609.16;5010824;28;20428;-79
2024/01/16 04:34:51;;;;;;;8.10;4.70;;;;;;;0.78;62.06;96629.09;5007295;28;20033;-79
2024/01/16 04:37:16;;;;;;;7.05;3.88;;;;;;;0.67;61.64;96620.22;5008682;28;20047;-80
2024/01/16 04:39:41;;;;;;;9.02;4.18;;;;;;;0.71;61.91;96620.63;5015189;28;20034;-79
2024/01/16 04:42:07;;;;;;;7.50;4.15;;;;;;;0.67;61.89;96614.28;5013640;28;20481;-80
2024/01/16 04:44:32;;;;;;;9.43;4.47;;;;;;;0.55;62.17;96611.53;4996804;28;20037;-80
2024/01/16 04:46:57;;;;;;;9.30;4.18;;;;;;;0.56;61.52;96598.50;5016736;28;20112;-80
2024/01/16 04:49:23;;;;;;;8.27;4.10;;;;;;;0.50;61.71;96593.41;5007517;28;20045;-80
2024/01/16 04:51:49;;;;;;;8.77;4.57;;;;;;;0.49;61.17;96602.84;5009253;28;20029;-80
2024/01/16 04:54:17;;;;;;;9.23;4.40;;;;;;;0.48;61.67;96605.59;5013769;28;20120;-80
2024/01/16 04:56:42;;;;;;;8.02;3.80;;;;;;;0.46;61.49;96600.66;5006027;28;20282;-80
2024/01/16 04:59:07;;;;;;;7.97;4.38;;;;;;;0.49;61.10;96602.06;4995482;28;20557;-80
2024/01/16 05:01:33;;;;;;;8.82;4.43;;;;;;;0.54;61.63;96605.59;4990216;28;20084;-79
2024/01/16 05:03:58;;;;;;;8.95;4.43;;;;;;;0.56;61.99;96592.59;5006094;28;20033;-80
2024/01/16 05:06:24;;;;;;;10.85;4.05;;;;;;;0.65;61.58;96599.13;5007592;28;20030;-80
2024/01/16 05:08:49;;;;;;;7.70;4.40;;;;;;;0.62;62.19;96588.47;5022358;28;20040;-79
2024/01/16 05:11:14;;;;;;;9.55;4.10;;;;;;;0.66;61.82;96592.22;5014506;28;20576;-79
2024/01/16 05:13:40;;;;;;;8.60;4.85;;;;;;;0.68;61.67;96588.47;5007373;28;20531;-79
2024/01/16 05:16:05;;;;;;;8.35;4.25;;;;;;;0.72;62.41;96586.31;5009916;28;20061;-80
2024/01/16 05:18:32;;;;;;;8.48;4.38;;;;;;;0.73;62.35;96572.53;5007594;28;20255;-80
2024/01/16 05:20:58;;;;;;;9.25;5.13;;;;;;;0.76;61.83;96581.63;5026358;28;20385;-80
2024/01/16 05:23:23;;;;;;;10.65;4.32;;;;;;;0.62;62.23;96566.22;5009710;28;20558;-80
2024/01/16 05:25:49;;;;;;;11.27;4.80;;;;;;;0.64;62.54;96564.25;4996331;28;20034;-80
2024/01/16 05:28:14;;;;;;;9.13;4.30;;;;;;;0.73;61.91;96559.72;4993005;28;20133;-80
2024/01/16 05:30:40;;;;;;;12.18;5.03;;;;;;;0.81;61.85;96554.41;5013706;28;20105;-80
2024/01/16 05:33:05;;;;;;;10.20;5.07;;;;;;;0.85;61.93;96560.69;5013450;28;20042;-79
2024/01/16 05:35:30;;;;;;;8.45;5.35;;;;;;;0.78;61.46;96552.22;5009329;28;20037;-80
2024/01/16 05:37:56;;;;;;;9.93;4.10;;;;;;;0.77;62.01;96552.41;5019167;28;20033;-80
2024/01/16 05:40:22;;;;;;;9.88;4.30;;;;;;;0.73;61.89;96552.81;4983564;28;20030;-81
2024/01/16 05:42:51;;;;;;;5.72;3.50;;;;;;;0.66;61.56;96549.47;5012502;28;20517;-80
2024/01/16 05:45:16;;;;;;;9.90;4.30;;;;;;;0.53;61.67;96550.25;5010014;28;20029;-79
2024/01/16 05:47:42;;;;;;;8.13;4.15;;;;;;;0.46;62.36;96557.13;4989687;28;20108;-79
2024/01/16 05:50:08;;;;;;;10.65;5.03;;;;;;;0.52;61.72;96545.31;5008894;28;20295;-79
2024/01/16 05:52:34;;;;;;;11.80;4.57;;;;;;;0.45;61.94;96550.44;5003625;28;20171;-80
2024/01/16 05:55:00;;;;;;;9.93;4.95;;;;;;;0.37;61.55;96550.63;5026329;28;20038;-80
2024/01/16 05:57:26;;;;;;;8.65;4.40;;;;;;;0.26;61.42;96543.50;5002253;28;20508;-80
2024/01/16 05:59:51;;;;;;;8.98;3.97;;;;;;;0.21;62.17;96540.72;4998269;28;20044;-79
2024/01/16 06:02:17;;;;;;;9.23;3.97;;;;;;;0.17;61.71;96538.56;4994713;28;20026;-85
2024/01/16 06:04:42;;;;;;;9.80;4.38;;;;;;;0.14;61.59;96541.53;5020169;28;20050;-86
2024/01/16 06:07:08;;;;;;;7.47;3.90;;;;;;;0.12;61.59;96551.16;5019208;28;20393;-85
2024/01/16 06:09:37;;;;;;;9.93;4.10;;;;;;;0.04;61.39;96538.53;4990785;28;20120;-86
2024/01/16 06:12:03;;;;;;;8.45;4.40;;;;;;;-0.07;61.29;96537.34;5023461;28;20061;-80
2024/01/16 06:14:29;;;;;;;8.00;4.30;;;;;;;0.03;61.59;96536.16;5012871;28;20076;-80
2024/01/16 06:16:54;;;;;;;7.78;3.90;;;;;;;0.13;61.53;96550.16;4986303;28;20445;-81
2024/01/16 06:19:21;;;;;;;9.88;5.07;;;;;;;0.00;61.26;96542.47;5004584;28;20076;-80
2024/01/16 06:21:46;;;;;;;8.07;4.55;;;;;;;-0.02;62.43;96537.56;5023022;28;20038;-80
2024/01/16 06:24:13;;;;;;;9.20;5.00;;;;;;;0.05;61.96;96534.97;5009244;28;20052;-80
2024/01/16 06:26:38;;;;;;;9.27;4.32;;;;;;;0.11;62.53;96534.22;5003003;28;20481;-81
2024/01/16 06:29:04;;;;;;;11.38;4.65;;;;;;;0.21;62.25;96533.03;5006134;28;20034;-80
2024/01/16 06:31:29;;;;;;;12.35;5.15;;;;;;;0.20;61.72;96523.81;4992969;28;20041;-81
2024/01/16 06:33:54;;;;;;;9.75;5.05;;;;;;;0.23;62.46;96518.31;4991703;28;20041;-81
2024/01/16 06:36:20;;;;;;;9.93;4.65;;;;;;;0.34;62.23;96520.28;5005938;28;20445;-81
2024/01/16 06:38:45;;;;;;;9.00;4.95;;;;;;;0.33;61.52;96526.41;5009605;28;20151;-81
2024/01/16 06:41:11;;;;;;;10.00;4.85;;;;;;;0.33;62.44;96522.06;5015500;28;20721;-81
2024/01/16 06:43:36;;;;;;;7.10;4.15;;;;;;;0.37;61.96;96519.88;5019865;28;20037;-81
2024/01/16 06:46:01;;;;;;;11.82;4.95;;;;;;;0.26;61.65;96521.25;5015936;28;20047;-81
2024/01/16 06:48:27;;;;;;;11.02;5.03;;;;;;;0.29;62.11;96523.44;5023735;28;20034;-81
2024/01/16 06:50:52;;;;;;;7.90;4.47;;;;;;;0.24;61.94;96514.75;4988842;28;20036;-81
2024/01/16 06:53:17;;;;;;;9.45;4.90;;;;;;;0.24;62.20;96522.44;4985195;28;20524;-81
2024/01/16 06:55:43;;;;;;;10.82;4.63;;;;;;;0.34;62.07;96522.84;5022280;28;20401;-81
2024/01/16 06:58:09;;;;;;;8.48;4.20;;;;;;;0.34;62.73;96518.53;4989259;28;20450;-81
2024/01/16 07:00:35;;;;;;;9.88;4.88;;;;;;;0.32;62.68;96510.22;4995544;28;20056;-81
2024/01/16 07:03:02;;;;;;;12.70;5.53;;;;;;;0.33;62.20;96516.16;5019512;28;20478;-81
2024/01/16 07:05:29;;;;;;;12.38;5.47;;;;;;;0.36;62.06;96516.53;4999694;28;20525;-81
2024/01/16 07:07:54;;;;;;;8.13;3.58;;;;;;;0.43;62.58;96518.31;4985558;28;20481;-81
2024/01/16 07:10:22;;;;;;;10.15;4.75;;;;;;;0.47;61.61;96516.94;5019976;28;20042;-81
2024/01/16 07:12:49;;;;;;;11.05;5.05;;;;;;;0.38;62.01;96508.69;5008991;28;20136;-86
2024/01/16 07:15:14;;;;;;;7.70;4.07;;;;;;;0.32;62.26;96519.69;5007598;28;20061;-85
2024/01/16 07:17:40;;;;;;;8.80;4.57;;;;;;;0.28;61.86;96526.19;4983680;28;20172;-86
2024/01/16 07:20:07;;;;;;;9.00;4.40;;;;;;;0.22;61.82;96514.16;5014517;28;20466;-86
2024/01/16 07:22:34;;;;;;;11.02;4.55;;;;;;;0.20;61.91;96514.34;5000520;28;20430;-86
2024/01/16 07:24:59;;;;;;;8.68;4.70;;;;;;;0.10;62.70;96517.28;5020129;28;20509;-86
2024/01/16 07:27:25;;;;;;;11.30;4.93;;;;;;;0.17;62.50;96518.09;5022723;28;20037;-86
2024/01/16 07:29:50;;;;;;;7.90;4.88;;;;;;;0.09;62.26;96502.91;5000671;28;20042;-85
2024/01/16 07:32:16;;;;;;;10.10;4.95;;;;;;;0.16;62.61;96519.06;5002206;28;20129;-85
2024/01/16 07:34:41;;;;;;;9.02;4.88;;;;;;;0.18;62.19;96522.22;5009461;28;20029;-86
2024/01/16 07:37:06;;;;;;;9.65;5.03;;;;;;;0.20;62.70;96516.13;5020418;28;20095;-87
2024/01/16 07:39:32;;;;;;;11.63;5.38;;;;;;;0.15;62.62;96522.59;5016027;28;20040;-87
2024/01/16 07:41:57;;;;;;;10.13;5.22;;;;;;;0.30;61.90;96521.66;5019589;28;20428;-86
2024/01/16 07:44:23;;;;;;;10.27;4.88;;;;;;;0.29;62.33;96531.13;4997997;28;20076;-85
2024/01/16 07:46:48;;;;;;;12.27;5.78;;;;;;;0.30;61.61;96532.69;5011973;28;20026;-86
2024/01/16 07:49:14;;;;;;;11.25;4.90;;;;;;;0.24;62.15;96537.78;5009481;28;20025;-85
2024/01/16 07:51:39;;;;;;;12.75;4.63;;;;;;;0.37;62.41;96540.38;4983271;28;20038;-86
2024/01/16 07:54:09;;;;;;;9.30;5.15;;;;;;;0.24;61.21;96542.91;5014152;28;20157;-86
2024/01/16 07:56:35;;;;;;;12.35;5.38;;;;;;;0.34;62.33;96543.31;4984794;28;20049;-86
2024/01/16 07:59:01;;;;;;;11.15;5.22;;;;;;;0.30;61.34;96544.69;4993771;28;20544;-86
2024/01/16 08:01:28;;;;;;;10.13;5.30;;;;;;;0.41;61.91;96544.13;4993719;28;20037;-85
2024/01/16 08:03:56;;;;;;;12.95;5.43;;;;;;;0.52;60.90;96553.78;4993051;28;20481;-86
2024/01/16 08:06:22;;;;;;;10.52;5.15;;;;;;;0.46;61.07;96549.44;4995816;28;20041;-86
2024/01/16 08:08:49;;;;;;;12.02;5.82;;;;;;;0.39;61.32;96553.00;5016339;28;20233;-86
2024/01/16 08:11:14;;;;;;;15.48;5.70;;;;;;;0.40;61.35;96562.25;5025914;28;20034;-86
2024/01/16 08:13:40;;;;;;;12.23;5.80;;;;;;;0.35;61.64;96557.72;4993120;28;20095;-85
2024/01/16 08:16:06;;;;;;;10.80;5.35;;;;;;;0.37;61.57;96568.53;5023797;28;20112;-88
2024/01/16 08:18:31;;;;;;;10.52;5.78;;;;;;;0.44;61.02;96569.34;5010993;28;20029;-87
2024/01/16 08:20:57;;;;;;;12.77;5.88;;;;;;;0.34;61.80;96559.50;4996510;28;20107;-85
2024/01/16 08:23:22;;;;;;;12.60;6.30;;;;;;;0.45;61.52;96567.59;5024280;28;20056;-81
2024/01/16 08:25:48;;;;;;;13.75;6.00;;;;;;;0.48;60.81;96560.31;5019859;28;20033;-81
2024/01/16 08:28:14;;;;;;;12.02;5.35;;;;;;;0.37;61.44;96561.63;5010424;28;20033;-80
2024/01/16 08:30:39;;;;;;;12.23;6.00;;;;;;;0.51;61.06;96559.88;4995782;28;20498;-81
2024/01/16 08:33:04;;;;;;;12.05;5.43;;;;;;;0.50;59.92;96555.75;5009098;28;20048;-80
2024/01/16 08:35:30;;;;;;;12.30;6.55;;;;;;;0.31;60.56;96559.06;5008762;28;20096;-80
2024/01/16 08:37:55;;;;;;;13.38;5.82;;;;;;;0.40;60.99;96563.03;5008884;28;20100;-81
2024/01/16 08:40:20;;;;;;;15.60;6.45;;;;;;;0.50;61.05;96567.78;5024298;28;20030;-81
2024/01/16 08:42:51;;;;;;;13.32;6.43;;;;;;;0.58;61.06;96572.69;5025341;28;20065;-81
2024/01/16 08:45:17;;;;;;;11.90;5.43;;;;;;;0.54;61.60;96569.75;5009745;28;20084;-81
2024/01/16 08:47:42;;;;;;;10.23;5.22;;;;;;;0.66;61.24;96580.22;5015487;28;20069;-81
2024/01/16 08:50:09;;;;;;;11.95;6.07;;;;;;;0.67;60.59;96575.88;5011967;28;20302;-81
2024/01/16 08:52:35;;;;;;;12.25;6.10;;;;;;;0.76;60.08;96576.50;4988965;28;20041;-81
2024/01/16 08:55:00;;;;;;;13.48;6.05;;;;;;;0.77;60.44;96583.94;5011580;28;20060;-81
2024/01/16 08:57:26;;;;;;;13.20;6.03;;;;;;;0.72;60.20;96579.44;5010973;28;20076;-80
2024/01/16 08:59:52;;;;;;;15.63;7.20;;;;;;;0.83;60.36;96580.63;5009995;28;20560;-80
2024/01/16 09:02:18;;;;;;;16.23;6.63;;;;;;;0.81;59.39;96581.81;5008164;28;20029;-81
2024/01/16 09:04:43;;;;;;;13.00;6.50;;;;;;;0.87;59.32;96579.22;5006947;28;20273;-80
2024/01/16 09:07:09;;;;;;;13.85;6.35;;;;;;;0.92;60.02;96597.38;5009395;28;20038;-81
2024/01/16 09:09:34;;;;;;;14.65;6.78;;;;;;;0.84;58.96;96587.31;4976160;28;20159;-80
2024/01/16 09:11:59;;;;;;;15.02;6.95;;;;;;;0.73;59.08;96593.81;5011717;28;20519;-81
2024/01/16 09:14:25;;;;;;;15.65;6.60;;;;;;;0.78;59.13;96595.78;5007462;28;20041;-81
2024/01/16 09:16:50;;;;;;;16.10;6.82;;;;;;;0.77;59.05;96596.75;4978450;28;20032;-81
2024/01/16 09:19:16;;;;;;;13.82;6.60;;;;;;;0.81;59.62;96599.75;5008001;28;20041;-81
2024/01/16 09:21:41;;;;;;;15.13;7.15;;;;;;;0.93;59.38;96598.94;5005320;28;20041;-81
2024/01/16 09:24:07;;;;;;;12.27;6.57;;;;;;;0.95;58.84;96608.22;5007257;28;20040;-81
2024/01/16 09:26:32;;;;;;;14.05;6.45;;;;;;;1.14;59.42;96615.13;5016131;28;20037;-81
2024/01/16 09:28:58;;;;;;;12.38;6.70;;;;;;;1.12;59.12;96596.59;5000548;28;20030;-81
2024/01/16 09:31:23;;;;;;;13.02;6.28;;;;;;;1.19;58.68;96592.25;5027947;28;20577;-80
2024/01/16 09:33:48;;;;;;;13.73;6.32;;;;;;;1.21;59.53;96586.91;5007933;28;20162;-80
2024/01/16 09:36:14;;;;;;;14.32;7.30;;;;;;;1.34;59.11;96584.34;5006527;28;20033;-81
2024/01/16 09:38:39;;;;;;;14.40;7.03;;;;;;;1.44;58.58;96578.78;4985973;28;20045;-80
2024/01/16 09:41:05;;;;;;;13.00;6.88;;;;;;;1.30;59.11;96572.88;5024183;28;20497;-80
2024/01/16 09:43:31;;;;;;;14.00;6.97;;;;;;;1.34;59.67;96578.41;5008159;28;20052;-81
2024/01/16 09:46:00;;;;;;;14.35;6.00;;;;;;;1.43;58.74;96574.66;4993708;28;20077;-81
2024/01/16 09:48:28;;;;;;;15.77;7.25;;;;;;;1.25;58.46;96560.69;5007779;28;20107;-80
2024/01/16 09:50:53;;;;;;;14.48;6.93;;;;;;;1.39;58.59;96555.50;5023282;28;20346;-81
2024/01/16 09:53:18;;;;;;;14.13;6.32;;;;;;;1.47;57.71;96561.22;5008344;28;20064;-80
2024/01/16 09:55:44;;;;;;;12.30;6.53;;;;;;;1.58;58.37;96570.06;5007688;28;20034;-79
2024/01/16 09:58:14;;;;;;;12.60;5.97;;;;;;;1.65;58.37;96565.72;5023822;28;20091;-80
2024/01/16 10:00:41;;;;;;;12.23;5.97;;;;;;;1.51;57.99;96564.19;4999706;28;20025;-80
2024/01/16 10:03:07;;;;;;;13.10;6.10;;;;;;;1.58;58.10;96562.38;5007554;28;20046;-80
2024/01/16 10:05:33;;;;;;;14.13;6.20;;;;;;;1.56;58.38;96568.69;4993661;28;20172;-80
2024/01/16 10:07:58;;;;;;;13.80;6.45;;;;;;;1.77;58.41;96570.22;5010785;28;20398;-80
2024/01/16 10:10:28;;;;;;;12.63;6.15;;;;;;;1.77;58.65;96558.16;4992623;28;20557;-80
2024/01/16 10:12:53;;;;;;;10.95;5.90;;;;;;;1.86;57.44;96563.84;5009425;28;20095;-79
2024/01/16 10:15:20;;;;;;;12.70;6.28;;;;;;;1.92;58.46;96563.06;4987265;28;20034;-80
2024/01/16 10:17:45;;;;;;;18.63;6.97;;;;;;;1.82;57.53;96565.28;5026535;28;20033;-79
2024/01/16 10:20:17;;;;;;;14.05;6.57;;;;;;;1.89;58.51;96566.03;4997961;28;20087;-79
2024/01/16 10:22:54;;;;;;;14.13;7.03;;;;;;;2.09;58.58;96565.13;5020160;28;20285;-79
2024/01/16 10:25:21;;;;;;;13.90;6.65;;;;;;;2.13;57.72;96561.97;4989642;28;20629;-79
2024/01/16 10:27:46;;;;;;;12.70;7.00;;;;;;;2.18;57.32;96562.13;5018521;28;20433;-79
2024/01/16 10:30:12;;;;;;;12.82;6.47;;;;;;;2.28;56.02;96559.13;5027696;28;20033;-79
2024/01/16 10:32:40;;;;;;;13.15;6.45;;;;;;;2.27;56.58;96541.34;4990203;28;20037;-79
2024/01/16 10:35:08;;;;;;;11.98;5.57;;;;;;;2.41;56.55;96551.31;4998570;28;20038;-78
2024/01/16 10:37:44;;;;;;;11.25;5.97;;;;;;;2.52;56.64;96533.66;4986305;28;20045;-78
2024/01/16 10:40:10;;;;;;;10.40;5.32;;;;;;;2.55;56.23;96534.06;5000524;28;20389;-79
2024/01/16 10:42:37;;;;;;;13.90;6.75;;;;;;;2.59;55.89;96535.19;5008026;28;20033;-79
2024/01/16 10:45:03;;;;;;;12.88;6.00;;;;;;;2.54;55.27;96531.69;4976751;28;20128;-79
2024/01/16 10:47:29;;;;;;;13.20;5.93;;;;;;;2.58;56.06;96528.47;4996520;28;20037;-79
2024/01/16 10:49:54;;;;;;;14.80;6.40;;;;;;;2.62;55.83;96529.66;4998779;28;20627;-79
2024/01/16 10:52:26;;;;;;;12.45;6.57;;;;;;;2.68;56.67;96525.44;5010484;28;20045;-83
2024/01/16 10:54:52;;;;;;;15.75;6.00;;;;;;;2.56;55.94;96524.56;4991345;28;20119;-83
2024/01/16 10:57:17;;;;;;;12.52;6.43;;;;;;;2.61;55.26;96522.16;5019705;28;20502;-83
2024/01/16 10:59:50;;;;;;;13.52;6.07;;;;;;;2.67;55.80;96529.00;5019907;28;20040;-83
2024/01/16 11:02:21;;;;;;;13.20;6.20;;;;;;;2.59;55.95;96519.00;5026087;28;20044;-83
2024/01/16 11:04:48;;;;;;;14.05;6.00;;;;;;;2.51;56.78;96525.19;5002321;28;20265;-78
2024/01/16 11:07:14;;;;;;;14.07;7.07;;;;;;;2.52;56.44;96523.38;5005692;28;20038;-78
2024/01/16 11:09:39;;;;;;;15.82;7.43;;;;;;;2.56;56.92;96516.84;4986585;28;20038;-78
2024/01/16 11:12:05;;;;;;;15.55;6.57;;;;;;;2.57;56.88;96515.84;5008595;28;20041;-79
2024/01/16 11:14:34;;;;;;;11.43;6.22;;;;;;;2.61;56.94;96510.06;5017499;28;20460;-79
2024/01/16 11:17:01;;;;;;;10.95;5.20;;;;;;;2.72;56.94;96503.47;5013419;28;20482;-79
2024/01/16 11:19:27;;;;;;;11.85;6.07;;;;;;;2.79;55.81;96504.22;4981949;28;20478;-79
2024/01/16 11:21:53;;;;;;;11.27;5.95;;;;;;;2.88;55.06;96491.88;5010443;28;20108;-79
2024/01/16 11:24:18;;;;;;;14.02;5.85;;;;;;;2.86;55.46;96483.56;4977568;28;20183;-79
2024/01/16 11:26:44;;;;;;;14.55;6.13;;;;;;;2.94;55.46;96487.66;4992378;28;20034;-78
2024/01/16 11:29:27;;;;;;;15.77;6.57;;;;;;;3.21;54.74;96488.19;5002627;28;20448;-79
2024/01/16 11:31:54;;;;;;;10.07;5.20;;;;;;;3.08;54.51;96489.09;5024263;28;20048;-79